Esmond, North Dakota
Current Conditions -  °F | °C
As of 11:15 AM on Saturday 20 Dec 2014 (Local Time) from K5H4 Reporting Station
Moderate Fog Moderate Fog  
Wind Chill: 14°   Ceiling: 100
Heat Index: 23°   Visibility: 0.25mi
Dew Point: 23°   Wind: 8mph
Humidity: 100%   Direction: 170°S
Pressure: 29.91"   Gusts: NA
Location:  48.04°N, 99.76°W
Report Text: K5H4 201715Z AUTO 17007KT 1/4SM FZFG OVC001 M05/M05 A2991 RMK AO2
Loading
Personal Weather Stations






























Interactive Weather Map New forecast layout! Learn more

10-Day Weather Forecast

Advertisements
Track Severe Weather on mobile